KBGD

Details ICAO KBGD
Name HUTCHINSON CO
Region United States
Timezone America/Chicago (UTC-6.0)
Plans Departing 1
Arriving 4
Stats Elevation 3,055 ft / 931 m (AMSL)
Location 35.700749° -101.393734°
Runways 2
Magnetic Variation 6.016° E
Sunrise 2017-12-15 13:49:39 UTC / 2017-12-15 07:49:39 Local
Sunset 2017-12-15 23:34:52 UTC / 2017-12-15 17:34:52 Local
Advertisement - Login to hide

Runways

ID Width Length Bearing (true) Bearing (mag) Surface Threshold Offset Overrun Length
03 50 ft / 15 m 3,899 ft / 1,188 m 39.73° 33.71° Asphalt 0 ft / 0 m 0 ft / 0 m
17 100 ft / 30 m 6,313 ft / 1,924 m 178.38° 172.36° Asphalt 0 ft / 0 m 0 ft / 0 m
21 50 ft / 15 m 3,899 ft / 1,188 m 219.74° 213.72° Asphalt 0 ft / 0 m 0 ft / 0 m
35 100 ft / 30 m 6,313 ft / 1,924 m 358.38° 352.36° Asphalt 0 ft / 0 m 0 ft / 0 m

Map

Weather


0- 5 10 15 20 25 30 35+ Temperature / ° C

Clouds and Precipitation
Forecast for 2017-12-16 00:00 UTC. Updated an hour ago

Ground ~20,000 ft ~40,000 ft Winds

METAR

KBGD 152351Z AUTO 20007KT 10SM CLR 11/M08 A3004 RMK AO2 SLP177 T01061078 10139 20078 58011

TAF

Not found

Frequencies

Recorded 118.32 MHz ASOS
Approach 119.50 MHz AMARILLO APP/DEP
Unicom 123.00 MHz CTAF/UNICOM
Warning: Do not use this data for real-world aviation or navigation. No guarantee of current accuracy is given.